createdAt,value
2018-09-27T00:00:47.953Z,21.46
2018-09-27T00:03:15.715Z,21.44
2018-09-27T00:05:43.662Z,21.45
2018-09-27T00:08:11.429Z,21.44
2018-09-27T00:10:39.193Z,21.44
2018-09-27T00:13:07.198Z,21.42
2018-09-27T00:15:34.913Z,21.40
2018-09-27T00:18:02.909Z,21.39
2018-09-27T00:20:30.341Z,21.42
2018-09-27T00:22:58.033Z,21.43
2018-09-27T00:25:25.382Z,21.40
2018-09-27T00:27:53.058Z,21.45
2018-09-27T00:30:20.946Z,21.43
2018-09-27T00:32:48.847Z,21.42
2018-09-27T00:35:16.726Z,21.44
2018-09-27T00:37:44.575Z,21.39
2018-09-27T00:40:12.539Z,21.30
2018-09-27T00:42:40.376Z,21.40
2018-09-27T00:45:08.159Z,21.38
2018-09-27T00:47:36.001Z,21.38
2018-09-27T00:50:04.178Z,21.37
2018-09-27T00:52:32.037Z,21.36
2018-09-27T00:54:59.919Z,21.36
2018-09-27T00:57:27.713Z,21.34
2018-09-27T00:59:55.558Z,21.35
2018-09-27T01:02:23.307Z,21.32
2018-09-27T01:04:50.585Z,21.34
2018-09-27T01:07:18.425Z,21.34
2018-09-27T01:09:46.208Z,21.35
2018-09-27T01:12:14.014Z,21.33
2018-09-27T01:14:41.825Z,21.30
2018-09-27T01:17:09.994Z,21.31
2018-09-27T01:19:37.674Z,21.37
2018-09-27T01:22:05.486Z,21.38
2018-09-27T01:24:33.512Z,21.31
2018-09-27T01:27:01.333Z,21.31
2018-09-27T01:29:28.589Z,21.30
2018-09-27T01:31:56.543Z,21.31
2018-09-27T01:34:23.856Z,21.30
2018-09-27T01:36:51.721Z,21.29
2018-09-27T01:39:20.342Z,21.30
2018-09-27T01:41:48.148Z,21.29
2018-09-27T01:44:15.926Z,21.30
2018-09-27T01:46:43.678Z,21.30
2018-09-27T01:49:11.645Z,21.31
2018-09-27T01:51:39.449Z,21.28
2018-09-27T01:54:07.201Z,21.31
2018-09-27T01:56:35.679Z,21.26
2018-09-27T01:59:02.862Z,21.27
2018-09-27T02:01:30.701Z,21.29
2018-09-27T02:03:58.621Z,21.23
2018-09-27T02:06:26.484Z,21.29
2018-09-27T02:08:54.474Z,21.30
2018-09-27T02:11:22.214Z,21.26
2018-09-27T02:13:50.058Z,21.27
2018-09-27T02:16:18.228Z,21.23
2018-09-27T02:18:46.006Z,21.25
2018-09-27T02:21:13.838Z,21.25
2018-09-27T02:23:41.687Z,21.25
2018-09-27T02:26:09.547Z,21.22
2018-09-27T02:28:37.365Z,21.23
2018-09-27T02:31:05.067Z,21.25
2018-09-27T02:33:32.309Z,21.22
2018-09-27T02:36:00.024Z,21.19
2018-09-27T02:38:27.898Z,21.22
2018-09-27T02:40:55.670Z,21.21
2018-09-27T02:43:23.690Z,21.21
2018-09-27T02:45:51.659Z,21.18
2018-09-27T02:48:19.677Z,21.19
2018-09-27T02:50:47.711Z,21.18
2018-09-27T02:53:14.974Z,21.18
2018-09-27T02:55:42.804Z,21.20
2018-09-27T02:58:10.685Z,21.18
2018-09-27T03:00:38.754Z,21.15
2018-09-27T03:03:07.302Z,21.15
2018-09-27T03:05:35.038Z,21.15
2018-09-27T03:08:02.910Z,21.18
2018-09-27T03:10:30.397Z,21.14
2018-09-27T03:12:58.199Z,21.12
2018-09-27T03:15:26.067Z,21.15
2018-09-27T03:17:54.222Z,21.17
2018-09-27T03:20:22.754Z,21.13
2018-09-27T03:23:00.679Z,21.14
2018-09-27T03:25:28.675Z,21.10
2018-09-27T03:27:56.486Z,21.12
2018-09-27T03:30:24.423Z,21.12
2018-09-27T03:35:26.111Z,21.13
2018-09-27T03:37:53.874Z,21.10
2018-09-27T03:40:22.008Z,21.12
2018-09-27T03:42:49.957Z,21.12
2018-09-27T03:45:17.763Z,21.13
2018-09-27T03:47:45.634Z,21.11
2018-09-27T03:50:13.488Z,20.98
2018-09-27T03:52:41.326Z,21.11
2018-09-27T03:55:09.183Z,21.10
2018-09-27T03:57:36.979Z,21.08
2018-09-27T04:00:05.918Z,21.08
2018-09-27T04:02:33.763Z,21.06
2018-09-27T04:05:01.602Z,21.10
2018-09-27T04:07:28.838Z,21.07
2018-09-27T04:09:56.737Z,21.06
2018-09-27T04:12:24.208Z,21.07
2018-09-27T04:14:52.785Z,21.08
2018-09-27T04:17:20.723Z,21.04
2018-09-27T04:19:48.721Z,21.06
2018-09-27T04:22:16.596Z,21.07
2018-09-27T04:24:44.598Z,21.04
2018-09-27T04:27:12.549Z,21.04
2018-09-27T04:29:40.305Z,21.06
2018-09-27T04:32:07.579Z,21.05
2018-09-27T04:34:35.684Z,21.03
2018-09-27T04:37:03.587Z,21.03
2018-09-27T04:39:31.553Z,21.02
2018-09-27T04:42:36.846Z,21.01
2018-09-27T04:45:04.983Z,21.02
2018-09-27T04:47:32.786Z,21.03
2018-09-27T04:50:00.615Z,21.04
2018-09-27T04:52:28.435Z,21.05
2018-09-27T04:54:56.278Z,21.01
2018-09-27T04:57:24.053Z,21.02
2018-09-27T04:59:52.261Z,20.99
2018-09-27T05:02:20.176Z,21.01
2018-09-27T05:04:48.014Z,20.99
2018-09-27T05:07:15.965Z,21.00
2018-09-27T05:09:43.504Z,21.00
2018-09-27T05:12:11.330Z,21.00
2018-09-27T05:14:39.410Z,21.02
2018-09-27T05:17:07.378Z,21.21
2018-09-27T05:19:35.415Z,21.33
2018-09-27T05:22:03.457Z,21.18
2018-09-27T05:24:31.283Z,21.12
2018-09-27T05:26:59.017Z,21.13
2018-09-27T05:29:26.963Z,21.10
2018-09-27T05:31:54.268Z,21.01
2018-09-27T05:34:22.062Z,21.06
2018-09-27T05:36:49.897Z,21.05
2018-09-27T05:41:44.757Z,21.02
2018-09-27T05:44:12.733Z,21.07
2018-09-27T05:46:41.006Z,20.65
2018-09-27T05:49:09.038Z,20.37
2018-09-27T05:51:37.114Z,20.20
2018-09-27T05:54:04.893Z,20.07
2018-09-27T05:56:32.971Z,19.95
2018-09-27T05:59:00.918Z,19.91
2018-09-27T06:01:28.956Z,19.64
2018-09-27T06:03:56.986Z,19.76
2018-09-27T06:06:25.013Z,19.64
2018-09-27T06:08:53.425Z,19.65
2018-09-27T06:11:21.454Z,19.60
2018-09-27T06:14:30.725Z,19.61
2018-09-27T06:16:58.713Z,19.54
2018-09-27T06:19:26.700Z,19.53
2018-09-27T06:21:54.171Z,19.38
2018-09-27T06:24:22.022Z,19.37
2018-09-27T06:26:49.443Z,19.39
2018-09-27T06:29:17.618Z,19.11
2018-09-27T06:31:45.630Z,19.38
2018-09-27T06:34:13.551Z,19.08
2018-09-27T06:36:41.337Z,19.31
2018-09-27T06:39:10.533Z,19.28
2018-09-27T06:41:38.326Z,19.27
2018-09-27T06:44:06.202Z,19.35
2018-09-27T06:46:34.066Z,19.13
2018-09-27T06:49:01.954Z,19.03
2018-09-27T06:51:29.436Z,19.36
2018-09-27T06:53:57.578Z,19.13
2018-09-27T06:56:25.576Z,19.37
2018-09-27T06:58:53.733Z,19.37
2018-09-27T07:01:21.663Z,19.13
2018-09-27T07:03:49.794Z,19.33
2018-09-27T07:06:17.766Z,19.31
2018-09-27T07:08:45.659Z,19.39
2018-09-27T07:11:13.629Z,19.42
2018-09-27T07:13:41.766Z,19.44
2018-09-27T07:16:09.747Z,19.45
2018-09-27T07:18:37.676Z,19.35
2018-09-27T07:21:05.779Z,19.52
2018-09-27T07:23:34.079Z,19.33
2018-09-27T07:26:02.428Z,19.59
2018-09-27T07:28:30.341Z,19.63
2018-09-27T07:30:58.210Z,19.62
2018-09-27T07:33:26.278Z,19.63
2018-09-27T07:35:54.348Z,19.52
2018-09-27T07:38:22.237Z,19.72
2018-09-27T07:40:50.745Z,19.75
2018-09-27T07:43:18.634Z,19.78
2018-09-27T07:45:46.593Z,19.80
2018-09-27T07:48:14.769Z,19.86
2018-09-27T07:50:42.968Z,19.90
2018-09-27T07:53:10.997Z,19.84
2018-09-27T07:55:38.934Z,19.92
2018-09-27T07:58:07.142Z,19.94
2018-09-27T08:00:34.902Z,19.95
2018-09-27T08:03:03.795Z,19.81
2018-09-27T08:05:31.775Z,20.05
2018-09-27T08:07:59.734Z,20.04
2018-09-27T08:10:27.633Z,20.09
2018-09-27T08:12:55.675Z,20.10
2018-09-27T08:15:23.554Z,20.14
2018-09-27T08:17:51.570Z,20.09
2018-09-27T08:20:19.509Z,20.18
2018-09-27T08:22:46.821Z,20.19
2018-09-27T08:25:14.885Z,20.22
2018-09-27T08:27:42.945Z,20.08
2018-09-27T08:30:10.831Z,20.22
2018-09-27T08:32:38.823Z,20.27
2018-09-27T08:35:06.953Z,20.28
2018-09-27T08:37:35.034Z,20.12
2018-09-27T08:40:02.549Z,20.35
2018-09-27T08:42:31.087Z,20.39
2018-09-27T08:44:59.053Z,20.23
2018-09-27T08:47:26.895Z,20.41
2018-09-27T08:49:54.878Z,20.46
2018-09-27T08:53:53.636Z,20.49
2018-09-27T08:56:20.840Z,20.37
2018-09-27T08:58:48.713Z,20.39
2018-09-27T09:01:16.668Z,20.61
2018-09-27T09:03:44.691Z,20.64
2018-09-27T09:06:12.477Z,20.68
2018-09-27T09:08:40.460Z,20.72
2018-09-27T09:11:08.380Z,20.59
2018-09-27T09:13:36.266Z,20.73
2018-09-27T09:16:04.578Z,20.80
2018-09-27T09:18:32.678Z,20.82
2018-09-27T09:21:00.693Z,20.80
2018-09-27T09:23:28.802Z,20.86
2018-09-27T09:25:56.648Z,20.70
2018-09-27T09:28:24.550Z,20.92
2018-09-27T09:30:52.397Z,20.95
2018-09-27T09:35:56.003Z,21.02
2018-09-27T09:38:23.936Z,21.05
2018-09-27T09:40:51.789Z,21.07
2018-09-27T09:43:19.797Z,21.08
2018-09-27T09:45:47.758Z,20.90
2018-09-27T09:48:15.626Z,21.10
2018-09-27T09:50:43.533Z,21.11
2018-09-27T09:53:11.621Z,21.15
2018-09-27T09:55:38.910Z,21.15
2018-09-27T09:58:06.998Z,21.17
2018-09-27T10:00:36.465Z,21.22
2018-09-27T10:03:05.633Z,21.22
2018-09-27T10:05:33.613Z,21.10
2018-09-27T10:08:01.810Z,21.18
2018-09-27T10:10:29.809Z,21.28
2018-09-27T10:12:57.873Z,21.23
2018-09-27T10:15:25.713Z,21.32
2018-09-27T10:17:53.613Z,21.35
2018-09-27T10:20:21.546Z,21.35
2018-09-27T10:22:48.758Z,21.37
2018-09-27T10:25:17.326Z,21.39
2018-09-27T10:27:45.193Z,21.43
2018-09-27T10:30:13.898Z,21.34
2018-09-27T10:32:41.734Z,21.45
2018-09-27T10:35:09.625Z,21.49
2018-09-27T10:37:37.885Z,21.36
2018-09-27T10:40:05.990Z,21.47
2018-09-27T10:42:33.973Z,21.52
2018-09-27T10:45:11.308Z,21.52
2018-09-27T10:47:39.716Z,21.53
2018-09-27T10:50:07.589Z,21.54
2018-09-27T10:52:35.515Z,21.60
2018-09-27T10:55:03.314Z,21.57
2018-09-27T10:57:31.283Z,21.43
2018-09-27T10:59:58.990Z,21.60
2018-09-27T11:02:26.962Z,21.54
2018-09-27T11:04:54.765Z,21.60
2018-09-27T11:07:22.593Z,21.62
2018-09-27T11:09:50.310Z,21.61
2018-09-27T11:12:18.034Z,21.52
2018-09-27T11:14:45.853Z,21.61
2018-09-27T11:17:13.714Z,21.65
2018-09-27T11:19:41.575Z,21.61
2018-09-27T11:22:09.535Z,21.63
2018-09-27T11:24:37.282Z,21.62
2018-09-27T11:27:05.047Z,21.63
2018-09-27T11:29:38.634Z,21.62
2018-09-27T11:32:12.289Z,21.49
2018-09-27T11:37:17.308Z,21.67
2018-09-27T11:39:45.043Z,21.67
2018-09-27T11:42:12.930Z,21.67
2018-09-27T11:44:41.751Z,21.67
2018-09-27T11:47:09.591Z,21.66
2018-09-27T11:49:37.441Z,21.66
2018-09-27T11:52:05.151Z,21.64
2018-09-27T11:54:32.533Z,21.65
2018-09-27T11:57:00.429Z,21.47
2018-09-27T11:59:55.040Z,21.58
2018-09-27T12:02:22.942Z,21.66
2018-09-27T12:04:54.394Z,21.48
2018-09-27T12:07:25.529Z,21.66
2018-09-27T12:09:52.746Z,21.68
2018-09-27T12:12:22.785Z,21.50
2018-09-27T12:14:50.851Z,21.68
2018-09-27T12:17:18.847Z,21.69
2018-09-27T12:19:46.747Z,21.69
2018-09-27T12:22:14.310Z,21.69
2018-09-27T12:24:42.063Z,21.71
2018-09-27T12:27:09.970Z,21.71
2018-09-27T12:29:37.719Z,21.65
2018-09-27T12:32:05.581Z,21.53
2018-09-27T12:34:33.371Z,21.74
2018-09-27T12:38:47.587Z,21.57
2018-09-27T12:41:15.604Z,21.76
2018-09-27T12:43:43.743Z,21.74
2018-09-27T12:46:11.867Z,21.64
2018-09-27T12:48:39.721Z,21.58
2018-09-27T12:51:07.534Z,21.77
2018-09-27T12:53:35.499Z,21.76
2018-09-27T12:56:03.355Z,21.79
2018-09-27T12:58:31.248Z,21.82
2018-09-27T13:00:59.402Z,21.70
2018-09-27T13:03:27.066Z,21.83
2018-09-27T13:05:55.209Z,21.65
2018-09-27T13:08:23.221Z,21.85
2018-09-27T13:10:51.382Z,21.85
2018-09-27T13:13:19.386Z,21.68
2018-09-27T13:15:47.222Z,21.88
2018-09-27T13:18:15.042Z,21.91
2018-09-27T13:20:43.064Z,21.94
2018-09-27T13:23:11.104Z,21.86
2018-09-27T13:25:38.868Z,21.88
2018-09-27T13:28:06.847Z,21.93
2018-09-27T13:30:34.731Z,21.96
2018-09-27T13:33:03.234Z,21.94
2018-09-27T13:35:30.983Z,21.97
2018-09-27T13:37:59.074Z,21.79
2018-09-27T13:40:26.338Z,21.99
2018-09-27T13:42:54.506Z,21.91
2018-09-27T13:45:22.402Z,21.93
2018-09-27T13:47:50.209Z,22.02
2018-09-27T13:50:18.180Z,21.85
2018-09-27T13:52:46.017Z,22.06
2018-09-27T13:55:13.879Z,21.93
2018-09-27T13:57:41.690Z,22.08
2018-09-27T14:00:10.014Z,22.09
2018-09-27T14:02:38.815Z,22.11
2018-09-27T14:05:07.043Z,22.12
2018-09-27T14:07:34.994Z,22.13
2018-09-27T14:10:02.903Z,22.15
2018-09-27T14:12:30.786Z,21.95
2018-09-27T14:14:58.846Z,22.18
2018-09-27T14:17:26.654Z,22.20
2018-09-27T14:19:54.598Z,22.15
2018-09-27T14:22:22.487Z,22.18
2018-09-27T14:24:50.365Z,22.20
2018-09-27T14:27:18.061Z,22.18
2018-09-27T14:29:46.034Z,22.25
2018-09-27T14:32:13.959Z,22.26
2018-09-27T14:34:41.686Z,22.30
2018-09-27T14:37:09.485Z,22.35
2018-09-27T14:39:37.446Z,22.37
2018-09-27T14:42:05.228Z,22.34
2018-09-27T14:44:32.869Z,22.35
2018-09-27T14:47:00.778Z,22.37
2018-09-27T14:49:29.754Z,22.21
2018-09-27T14:51:57.782Z,22.36
2018-09-27T14:54:25.766Z,22.36
2018-09-27T14:56:53.761Z,22.34
2018-09-27T14:59:21.614Z,22.34
2018-09-27T15:01:50.064Z,22.31
2018-09-27T15:04:17.389Z,22.34
2018-09-27T15:06:45.286Z,22.32
2018-09-27T15:09:12.991Z,22.30
2018-09-27T15:11:40.389Z,22.35
2018-09-27T15:14:08.218Z,22.35
2018-09-27T15:16:36.326Z,22.33
2018-09-27T15:19:04.451Z,22.33
2018-09-27T15:21:32.231Z,22.35
2018-09-27T15:24:00.541Z,22.34
2018-09-27T15:26:28.406Z,22.35
2018-09-27T15:28:56.188Z,22.35
2018-09-27T15:31:24.183Z,22.35
2018-09-27T15:33:52.206Z,22.34
2018-09-27T15:36:19.536Z,22.35
2018-09-27T15:38:47.381Z,22.34
2018-09-27T15:41:15.198Z,22.33
2018-09-27T15:43:43.011Z,22.34
2018-09-27T15:46:10.954Z,22.33
2018-09-27T15:48:39.303Z,22.38
2018-09-27T15:51:07.022Z,22.39
2018-09-27T15:53:34.986Z,22.40
2018-09-27T15:56:02.952Z,22.33
2018-09-27T15:58:30.991Z,22.36
2018-09-27T16:00:58.494Z,22.37
2018-09-27T16:03:26.550Z,22.40
2018-09-27T16:05:54.682Z,22.39
2018-09-27T16:08:22.598Z,22.37
2018-09-27T16:10:50.474Z,22.40
2018-09-27T16:13:18.311Z,22.37
2018-09-27T16:15:46.063Z,22.37
2018-09-27T16:18:13.859Z,22.37
2018-09-27T16:20:41.683Z,22.36
2018-09-27T16:23:09.590Z,22.34
2018-09-27T16:25:37.583Z,22.35
2018-09-27T16:28:05.201Z,22.33
2018-09-27T16:30:32.970Z,22.30
2018-09-27T16:33:00.653Z,22.35
2018-09-27T16:35:28.758Z,22.36
2018-09-27T16:37:57.541Z,22.36
2018-09-27T16:40:25.570Z,22.32
2018-09-27T16:42:53.494Z,22.29
2018-09-27T16:45:21.302Z,22.28
2018-09-27T16:47:49.049Z,22.27
2018-09-27T16:50:16.850Z,22.25
2018-09-27T16:52:44.833Z,22.26
2018-09-27T16:55:12.057Z,22.22
2018-09-27T16:57:40.039Z,22.18
2018-09-27T17:00:07.870Z,22.17
2018-09-27T17:02:35.679Z,22.20
2018-09-27T17:05:03.493Z,22.18
2018-09-27T17:07:31.218Z,22.15
2018-09-27T17:09:59.394Z,22.19
2018-09-27T17:12:27.222Z,22.13
2018-09-27T17:14:55.201Z,22.14
2018-09-27T17:17:23.305Z,22.19
2018-09-27T17:19:51.184Z,22.25
2018-09-27T17:22:19.059Z,22.32
2018-09-27T17:24:47.208Z,22.34
2018-09-27T17:27:15.205Z,22.34
2018-09-27T17:29:43.014Z,22.36
2018-09-27T17:32:10.270Z,22.38
2018-09-27T17:34:38.031Z,22.45
2018-09-27T17:37:06.221Z,22.39
2018-09-27T17:39:33.962Z,22.33
2018-09-27T17:42:01.863Z,22.30
2018-09-27T17:44:29.742Z,22.27
2018-09-27T17:46:57.577Z,22.23
2018-09-27T17:49:25.533Z,22.29
2018-09-27T17:51:53.189Z,22.31
2018-09-27T17:54:21.015Z,22.33
2018-09-27T17:56:48.518Z,22.34
2018-09-27T17:59:16.688Z,22.33
2018-09-27T18:01:44.621Z,22.34
2018-09-27T18:04:12.457Z,22.33
2018-09-27T18:06:40.195Z,22.27
2018-09-27T18:09:10.312Z,22.33
2018-09-27T18:11:38.533Z,22.33
2018-09-27T18:14:06.185Z,22.37
2018-09-27T18:16:34.079Z,22.30
2018-09-27T18:19:02.306Z,22.36
2018-09-27T18:21:29.980Z,22.37
2018-09-27T18:23:57.946Z,22.38
2018-09-27T18:26:25.677Z,22.34
2018-09-27T18:28:53.545Z,22.38
2018-09-27T18:31:21.460Z,22.38
2018-09-27T18:33:49.222Z,22.36
2018-09-27T18:36:16.945Z,22.40
2018-09-27T18:38:44.865Z,22.38
2018-09-27T18:41:12.716Z,22.30
2018-09-27T18:43:44.465Z,22.39
2018-09-27T18:46:12.193Z,22.37
2018-09-27T18:48:40.193Z,22.33
2018-09-27T18:51:07.959Z,22.37
2018-09-27T18:53:35.377Z,22.35
2018-09-27T18:56:03.236Z,22.37
2018-09-27T18:58:31.214Z,22.34
2018-09-27T19:00:59.053Z,22.35
2018-09-27T19:03:27.173Z,22.32
2018-09-27T19:05:54.960Z,22.36
2018-09-27T19:08:22.866Z,22.37
2018-09-27T19:10:50.745Z,22.38
2018-09-27T19:13:18.714Z,22.37
2018-09-27T19:15:46.566Z,22.41
2018-09-27T19:18:14.503Z,22.42
2018-09-27T19:20:42.294Z,22.37
2018-09-27T19:23:10.895Z,22.35
2018-09-27T19:25:38.674Z,22.39
2018-09-27T19:28:06.561Z,22.39
2018-09-27T19:30:34.580Z,22.19
2018-09-27T19:33:02.665Z,22.30
2018-09-27T19:35:30.684Z,22.35
2018-09-27T19:37:58.758Z,22.35
2018-09-27T19:40:26.795Z,22.33
2018-09-27T19:42:54.754Z,22.40
2018-09-27T19:45:22.604Z,22.31
2018-09-27T19:47:50.478Z,22.36
2018-09-27T19:50:18.204Z,22.36
2018-09-27T19:52:46.031Z,22.35
2018-09-27T19:55:14.012Z,22.35
2018-09-27T19:57:41.796Z,22.34
2018-09-27T20:00:09.610Z,22.35
2018-09-27T20:02:37.636Z,22.33
2018-09-27T20:05:05.485Z,22.32
2018-09-27T20:07:33.612Z,22.36
2018-09-27T20:10:01.686Z,22.38
2018-09-27T20:12:29.576Z,22.35
2018-09-27T20:14:57.382Z,22.35
2018-09-27T20:17:25.265Z,22.32
2018-09-27T20:19:52.534Z,22.34
2018-09-27T20:22:20.730Z,22.33
2018-09-27T20:24:48.678Z,22.33
2018-09-27T20:27:16.530Z,22.35
2018-09-27T20:29:44.200Z,22.33
2018-09-27T20:32:12.084Z,22.34
2018-09-27T20:34:39.926Z,22.29
2018-09-27T20:37:31.749Z,22.33
2018-09-27T20:39:59.614Z,22.37
2018-09-27T20:42:27.542Z,22.38
2018-09-27T20:44:55.339Z,22.39
2018-09-27T20:47:23.188Z,22.34
2018-09-27T20:49:50.781Z,22.37
2018-09-27T20:52:19.205Z,22.34
2018-09-27T20:54:47.233Z,22.35
2018-09-27T20:57:15.028Z,22.38
2018-09-27T20:59:42.893Z,22.45
2018-09-27T21:02:10.753Z,22.44
2018-09-27T21:04:38.686Z,22.41
2018-09-27T21:07:06.573Z,22.54
2018-09-27T21:09:34.470Z,22.57
2018-09-27T21:12:02.272Z,22.59
2018-09-27T21:14:30.034Z,22.62
2018-09-27T21:16:57.938Z,22.61
2018-09-27T21:19:26.044Z,22.62
2018-09-27T21:21:53.582Z,22.74
2018-09-27T21:24:21.531Z,22.73
2018-09-27T21:26:49.467Z,22.58
2018-09-27T21:29:17.038Z,22.64
2018-09-27T21:31:44.447Z,22.53
2018-09-27T21:34:12.199Z,22.47
2018-09-27T21:36:39.998Z,22.52
2018-09-27T21:39:08.054Z,22.51
2018-09-27T21:41:35.875Z,22.59
2018-09-27T21:44:03.857Z,22.61
2018-09-27T21:46:31.897Z,22.58
2018-09-27T21:48:59.654Z,22.59
2018-09-27T21:51:28.298Z,22.62
2018-09-27T21:53:56.477Z,22.64
2018-09-27T21:56:24.202Z,22.56
2018-09-27T21:58:51.938Z,22.50
2018-09-27T22:01:20.030Z,22.47
2018-09-27T22:03:47.381Z,22.46
2018-09-27T22:06:15.181Z,22.34
2018-09-27T22:08:43.001Z,22.41
2018-09-27T22:11:11.314Z,22.42
2018-09-27T22:13:39.054Z,22.34
2018-09-27T22:16:08.018Z,22.38
2018-09-27T22:18:35.680Z,22.36
2018-09-27T22:21:03.562Z,22.41
2018-09-27T22:23:31.562Z,22.40
2018-09-27T22:26:00.635Z,22.38
2018-09-27T22:28:28.874Z,22.34
2018-09-27T22:30:56.934Z,22.35
2018-09-27T22:33:24.746Z,22.37
2018-09-27T22:35:52.685Z,22.34
2018-09-27T22:38:20.658Z,22.34
2018-09-27T22:40:48.557Z,22.32
2018-09-27T22:43:16.561Z,22.32
2018-09-27T22:45:44.302Z,22.31
2018-09-27T22:48:12.174Z,22.31
2018-09-27T22:50:40.194Z,22.30
2018-09-27T22:53:08.002Z,22.32
2018-09-27T22:55:35.876Z,22.30
2018-09-27T22:58:03.265Z,22.29
2018-09-27T23:00:31.010Z,22.30
2018-09-27T23:02:58.872Z,22.31
2018-09-27T23:05:28.689Z,22.30
2018-09-27T23:07:56.578Z,22.27
2018-09-27T23:10:24.802Z,22.27
2018-09-27T23:12:52.848Z,22.28
2018-09-27T23:15:20.301Z,22.10
2018-09-27T23:17:48.045Z,22.22
2018-09-27T23:20:15.378Z,22.26
2018-09-27T23:22:43.958Z,22.24
2018-09-27T23:25:11.854Z,22.26
2018-09-27T23:27:39.669Z,22.24
2018-09-27T23:30:07.558Z,22.24
2018-09-27T23:32:35.431Z,22.23
2018-09-27T23:35:02.694Z,22.23
2018-09-27T23:37:30.582Z,22.24
2018-09-27T23:39:58.494Z,22.23
2018-09-27T23:42:25.753Z,22.25
2018-09-27T23:44:54.192Z,22.23
2018-09-27T23:47:22.189Z,22.20
2018-09-27T23:49:49.921Z,22.24
2018-09-27T23:52:17.661Z,22.19
2018-09-27T23:54:45.513Z,22.22
2018-09-27T23:57:13.534Z,22.20
2018-09-27T23:59:41.378Z,22.17
